createdAt,value
2017-01-25T00:00:27.185Z,-0.24
2017-01-25T00:01:40.661Z,-0.24
2017-01-25T00:02:54.143Z,-0.22
2017-01-25T00:04:07.913Z,-0.22
2017-01-25T00:05:21.506Z,-0.23
2017-01-25T00:06:35.143Z,-0.2
2017-01-25T00:07:48.599Z,-0.22
2017-01-25T00:09:02.070Z,-0.23
2017-01-25T00:10:15.801Z,-0.23
2017-01-25T00:11:30.567Z,-0.24
2017-01-25T00:12:44.507Z,-0.26
2017-01-25T00:13:57.933Z,-0.27
2017-01-25T00:15:11.854Z,-0.26
2017-01-25T00:16:26.897Z,-0.27
2017-01-25T00:17:40.773Z,-0.3
2017-01-25T00:18:54.244Z,-0.29
2017-01-25T00:20:07.931Z,-0.3
2017-01-25T00:21:21.397Z,-0.31
2017-01-25T00:22:35.277Z,-0.32
2017-01-25T00:23:48.717Z,-0.33
2017-01-25T00:25:02.595Z,-0.33
2017-01-25T00:26:16.136Z,-0.34
2017-01-25T00:27:29.715Z,-0.39
2017-01-25T00:28:43.724Z,-0.4
2017-01-25T00:29:57.223Z,-0.41
2017-01-25T00:31:10.617Z,-0.38
2017-01-25T00:32:24.262Z,-0.34
2017-01-25T00:33:37.829Z,-0.31
2017-01-25T00:34:51.609Z,-0.27
2017-01-25T00:36:05.093Z,-0.23
2017-01-25T00:37:18.712Z,-0.2
2017-01-25T00:38:32.232Z,-0.19
2017-01-25T00:39:45.682Z,-0.17
2017-01-25T00:40:59.596Z,-0.15
2017-01-25T00:42:13.059Z,-0.11
2017-01-25T00:43:26.574Z,-0.06
2017-01-25T00:44:40.008Z,-0.04
2017-01-25T00:45:53.437Z,-0.01
2017-01-25T00:47:07.646Z,0.03
2017-01-25T00:48:21.116Z,0.07
2017-01-25T00:49:34.962Z,0.11
2017-01-25T00:50:48.401Z,0.14
2017-01-25T00:52:01.831Z,0.19
2017-01-25T00:53:15.587Z,0.21
2017-01-25T00:54:29.107Z,0.2
2017-01-25T00:55:42.599Z,0.19
2017-01-25T00:56:56.072Z,0.19
2017-01-25T00:58:09.505Z,0.16
2017-01-25T00:59:24.540Z,0.14
2017-01-25T01:00:37.971Z,0.1
2017-01-25T01:01:51.554Z,0.1
2017-01-25T01:03:04.958Z,0.12
2017-01-25T01:04:18.586Z,0.17
2017-01-25T01:05:32.748Z,0.19
2017-01-25T01:06:46.206Z,0.17
2017-01-25T01:07:59.692Z,0.11
2017-01-25T01:09:13.118Z,0.09
2017-01-25T01:10:26.673Z,0.09
2017-01-25T01:11:40.390Z,0.09
2017-01-25T01:12:54.686Z,0.13
2017-01-25T01:14:08.111Z,0.16
2017-01-25T01:15:21.653Z,0.16
2017-01-25T01:16:37.289Z,0.12
2017-01-25T01:17:51.015Z,0.08
2017-01-25T01:19:36.611Z,0
2017-01-25T01:20:50.485Z,-0.04
2017-01-25T01:22:03.944Z,-0.04
2017-01-25T01:23:18.491Z,0
2017-01-25T01:24:31.962Z,0.05
2017-01-25T01:25:45.654Z,0.1
2017-01-25T01:26:59.529Z,0.16
2017-01-25T01:28:13.454Z,0.21
2017-01-25T01:29:27.157Z,0.23
2017-01-25T01:30:41.118Z,0.2
2017-01-25T01:31:54.578Z,0.17
2017-01-25T01:33:08.082Z,0.14
2017-01-25T01:34:21.538Z,0.1
2017-01-25T01:35:35.780Z,0.09
2017-01-25T01:36:49.608Z,0.09
2017-01-25T01:38:03.071Z,0.09
2017-01-25T01:39:16.761Z,0.09
2017-01-25T01:40:30.241Z,0.1
2017-01-25T01:41:44.036Z,0.04
2017-01-25T01:42:57.499Z,0.03
2017-01-25T01:44:10.927Z,0.06
2017-01-25T01:45:24.586Z,0.1
2017-01-25T01:46:38.523Z,0.13
2017-01-25T01:47:52.287Z,0.18
2017-01-25T01:49:07.378Z,0.23
2017-01-25T01:50:23.346Z,0.27
2017-01-25T01:51:39.120Z,0.29
2017-01-25T01:52:52.980Z,0.27
2017-01-25T01:54:07.466Z,0.24
2017-01-25T01:55:22.640Z,0.21
2017-01-25T01:56:40.458Z,0.23
2017-01-25T01:57:57.298Z,0.19
2017-01-25T01:59:15.235Z,0.2
2017-01-25T02:00:32.129Z,0.23
2017-01-25T02:01:46.736Z,0.24
2017-01-25T02:03:00.190Z,0.25
2017-01-25T02:04:13.622Z,0.28
2017-01-25T02:05:27.065Z,0.29
2017-01-25T02:06:40.786Z,0.3
2017-01-25T02:07:55.512Z,0.31
2017-01-25T02:09:09.419Z,0.31
2017-01-25T02:10:23.451Z,0.3
2017-01-25T02:11:38.123Z,0.26
2017-01-25T02:12:51.910Z,0.23
2017-01-25T02:14:05.360Z,0.23
2017-01-25T02:15:18.820Z,0.23
2017-01-25T02:16:32.278Z,0.22
2017-01-25T02:17:45.884Z,0.23
2017-01-25T02:18:59.614Z,0.22
2017-01-25T02:20:13.043Z,0.14
2017-01-25T02:21:26.864Z,0.09
2017-01-25T02:22:40.748Z,0.06
2017-01-25T02:23:54.291Z,0.06
2017-01-25T02:25:08.601Z,0.06
2017-01-25T02:26:22.048Z,0.09
2017-01-25T02:27:35.456Z,0.1
2017-01-25T02:28:49.071Z,0.11
2017-01-25T02:30:02.522Z,0.11
2017-01-25T02:31:16.252Z,0.07
2017-01-25T02:32:29.684Z,-0.01
2017-01-25T02:33:46.113Z,-0.05
2017-01-25T02:34:59.532Z,-0.06
2017-01-25T02:36:12.940Z,-0.06
2017-01-25T02:37:26.621Z,-0.01
2017-01-25T02:38:40.026Z,0.03
2017-01-25T02:39:53.528Z,0.07
2017-01-25T02:41:07.347Z,0.11
2017-01-25T02:42:20.777Z,0.11
2017-01-25T02:43:34.486Z,0.11
2017-01-25T02:44:48.057Z,0.13
2017-01-25T02:46:01.496Z,0.2
2017-01-25T02:47:15.318Z,0.25
2017-01-25T02:48:28.722Z,0.26
2017-01-25T02:49:42.507Z,0.3
2017-01-25T02:50:55.919Z,0.29
2017-01-25T02:52:09.537Z,0.27
2017-01-25T02:53:23.009Z,0.24
2017-01-25T02:54:36.460Z,0.2
2017-01-25T02:55:50.265Z,0.15
2017-01-25T02:57:03.681Z,0.13
2017-01-25T02:58:17.129Z,0.12
2017-01-25T02:59:30.965Z,0.12
2017-01-25T03:00:45.676Z,0.13
2017-01-25T03:01:59.366Z,0.17
2017-01-25T03:03:12.841Z,0.2
2017-01-25T03:04:26.301Z,0.21
2017-01-25T03:05:39.835Z,0.19
2017-01-25T03:06:53.295Z,0.17
2017-01-25T03:08:06.961Z,0.19
2017-01-25T03:09:20.383Z,0.21
2017-01-25T03:10:34.226Z,0.24
2017-01-25T03:11:47.713Z,0.26
2017-01-25T03:13:01.152Z,0.26
2017-01-25T03:14:14.837Z,0.22
2017-01-25T03:15:28.280Z,0.23
2017-01-25T03:16:41.733Z,0.22
2017-01-25T03:17:55.126Z,0.22
2017-01-25T03:19:08.663Z,0.24
2017-01-25T03:20:22.335Z,0.25
2017-01-25T03:21:37.668Z,0.27
2017-01-25T03:22:51.110Z,0.27
2017-01-25T03:24:04.612Z,0.28
2017-01-25T03:25:18.174Z,0.31
2017-01-25T03:26:31.915Z,0.29
2017-01-25T03:27:45.783Z,0.27
2017-01-25T03:28:59.196Z,0.28
2017-01-25T03:30:12.622Z,0.29
2017-01-25T03:31:26.074Z,0.3
2017-01-25T03:32:39.983Z,0.31
2017-01-25T03:33:53.389Z,0.32
2017-01-25T03:35:06.826Z,0.31
2017-01-25T03:36:20.222Z,0.31
2017-01-25T03:37:33.749Z,0.29
2017-01-25T03:38:47.471Z,0.29
2017-01-25T03:40:00.915Z,0.28
2017-01-25T03:41:14.336Z,0.28
2017-01-25T03:42:27.721Z,0.3
2017-01-25T03:43:41.201Z,0.34
2017-01-25T03:44:54.928Z,0.36
2017-01-25T03:46:08.353Z,0.43
2017-01-25T03:47:22.351Z,0.47
2017-01-25T03:48:35.875Z,0.5
2017-01-25T03:49:51.444Z,0.5
2017-01-25T03:51:05.185Z,0.52
2017-01-25T03:52:18.580Z,0.54
2017-01-25T03:53:32.149Z,0.55
2017-01-25T03:54:45.578Z,0.58
2017-01-25T03:55:59.035Z,0.58
2017-01-25T03:57:13.326Z,0.59
2017-01-25T03:58:26.738Z,0.59
2017-01-25T03:59:40.300Z,0.59
2017-01-25T04:00:53.728Z,0.58
2017-01-25T04:02:07.202Z,0.59
2017-01-25T04:03:20.912Z,0.6
2017-01-25T04:04:34.414Z,0.62
2017-01-25T04:05:47.899Z,0.63
2017-01-25T04:07:01.320Z,0.68
2017-01-25T04:08:14.839Z,0.7
2017-01-25T04:09:28.718Z,0.71
2017-01-25T04:10:42.142Z,0.73
2017-01-25T04:11:55.588Z,0.74
2017-01-25T04:13:09.082Z,0.74
2017-01-25T04:14:22.918Z,0.74
2017-01-25T04:15:36.694Z,0.76
2017-01-25T04:16:50.172Z,0.76
2017-01-25T04:18:03.625Z,0.74
2017-01-25T04:19:17.086Z,0.78
2017-01-25T04:20:30.763Z,0.81
2017-01-25T04:21:44.451Z,0.76
2017-01-25T04:22:57.899Z,0.68
2017-01-25T04:24:11.310Z,0.61
2017-01-25T04:25:24.852Z,0.55
2017-01-25T04:26:38.496Z,0.56
2017-01-25T04:27:52.192Z,0.57
2017-01-25T04:29:05.615Z,0.6
2017-01-25T04:30:19.041Z,0.6
2017-01-25T04:31:33.024Z,0.6
2017-01-25T04:32:46.492Z,0.63
2017-01-25T04:34:00.703Z,0.61
2017-01-25T04:35:14.087Z,0.61
2017-01-25T04:36:27.582Z,0.61
2017-01-25T04:37:40.984Z,0.61
2017-01-25T04:38:54.443Z,0.65
2017-01-25T04:40:08.203Z,0.68
2017-01-25T04:41:22.368Z,0.72
2017-01-25T04:42:35.805Z,0.74
2017-01-25T04:43:49.221Z,0.78
2017-01-25T04:45:03.030Z,0.78
2017-01-25T04:46:16.698Z,0.79
2017-01-25T04:47:30.191Z,0.79
2017-01-25T04:48:43.590Z,0.77
2017-01-25T04:49:57.042Z,0.78
2017-01-25T04:51:10.453Z,0.79
2017-01-25T04:52:25.463Z,0.79
2017-01-25T04:53:38.902Z,0.79
2017-01-25T04:54:52.315Z,0.74
2017-01-25T04:56:05.744Z,0.7
2017-01-25T04:57:19.269Z,0.67
2017-01-25T04:58:32.963Z,0.66
2017-01-25T04:59:46.994Z,0.6
2017-01-25T05:01:00.406Z,0.52
2017-01-25T05:02:14.350Z,0.51
2017-01-25T05:03:29.065Z,0.52
2017-01-25T05:04:42.808Z,0.55
2017-01-25T05:05:58.800Z,0.57
2017-01-25T05:07:12.245Z,0.57
2017-01-25T05:08:26.581Z,0.54
2017-01-25T05:09:40.283Z,0.53
2017-01-25T05:10:54.743Z,0.54
2017-01-25T05:12:08.343Z,0.56
2017-01-25T05:13:22.049Z,0.58
2017-01-25T05:14:35.836Z,0.59
2017-01-25T05:15:49.386Z,0.6
2017-01-25T05:17:03.249Z,0.61
2017-01-25T05:18:17.379Z,0.62
2017-01-25T05:19:31.418Z,0.65
2017-01-25T05:20:45.077Z,0.7
2017-01-25T05:22:00.293Z,0.72
2017-01-25T05:23:15.062Z,0.75
2017-01-25T05:24:28.582Z,0.78
2017-01-25T05:25:42.917Z,0.81
2017-01-25T05:26:57.344Z,0.85
2017-01-25T05:28:10.758Z,0.87
2017-01-25T05:29:26.666Z,0.84
2017-01-25T05:30:41.365Z,0.85
2017-01-25T05:31:56.618Z,0.98
2017-01-25T05:33:14.808Z,1.21
2017-01-25T05:34:31.041Z,1.38
2017-01-25T05:35:48.237Z,1.53
2017-01-25T05:37:05.048Z,1.6
2017-01-25T05:38:20.246Z,1.67
2017-01-25T05:39:33.866Z,1.68
2017-01-25T05:40:48.173Z,1.58
2017-01-25T05:42:03.958Z,1.51
2017-01-25T05:43:19.287Z,1.41
2017-01-25T05:44:32.837Z,1.19
2017-01-25T05:45:47.540Z,1.02
2017-01-25T05:47:01.910Z,0.93
2017-01-25T05:48:15.883Z,0.84
2017-01-25T05:49:29.666Z,0.78
2017-01-25T05:50:43.368Z,0.77
2017-01-25T05:51:57.083Z,0.77
2017-01-25T05:53:10.839Z,0.77
2017-01-25T05:54:25.796Z,0.74
2017-01-25T05:55:39.528Z,0.74
2017-01-25T05:56:53.899Z,0.73
2017-01-25T05:58:07.581Z,0.71
2017-01-25T05:59:23.503Z,0.68
2017-01-25T06:00:37.631Z,0.62
2017-01-25T06:01:51.288Z,0.61
2017-01-25T06:03:04.828Z,0.62
2017-01-25T06:04:18.277Z,0.58
2017-01-25T06:05:32.540Z,0.53
2017-01-25T06:06:46.305Z,0.49
2017-01-25T06:07:59.808Z,0.42
2017-01-25T06:09:13.525Z,0.37
2017-01-25T06:10:27.136Z,0.33
2017-01-25T06:11:40.654Z,0.33
2017-01-25T06:12:54.563Z,0.37
2017-01-25T06:14:08.048Z,0.39
2017-01-25T06:15:21.797Z,0.42
2017-01-25T06:18:21.626Z,0.38
2017-01-25T06:19:35.598Z,0.4
2017-01-25T06:20:49.341Z,0.44
2017-01-25T06:22:03.240Z,0.47
2017-01-25T06:23:19.025Z,0.44
2017-01-25T06:24:32.719Z,0.45
2017-01-25T06:25:47.067Z,0.43
2017-01-25T06:27:00.634Z,0.43
2017-01-25T06:28:14.472Z,0.43
2017-01-25T06:29:28.088Z,0.45
2017-01-25T06:30:41.766Z,0.46
2017-01-25T06:31:57.014Z,0.46
2017-01-25T06:33:10.527Z,0.51
2017-01-25T06:34:24.032Z,0.55
2017-01-25T06:35:37.636Z,0.53
2017-01-25T06:36:51.124Z,0.52
2017-01-25T06:38:05.453Z,0.53
2017-01-25T06:39:18.960Z,0.52
2017-01-25T06:40:32.513Z,0.5
2017-01-25T06:41:46.070Z,0.46
2017-01-25T06:43:00.772Z,0.4
2017-01-25T06:44:14.520Z,0.38
2017-01-25T06:45:28.034Z,0.39
2017-01-25T06:46:41.645Z,0.44
2017-01-25T06:48:28.067Z,0.47
2017-01-25T06:49:41.894Z,0.47
2017-01-25T06:50:55.357Z,0.46
2017-01-25T06:52:08.943Z,0.44
2017-01-25T06:53:22.588Z,0.43
2017-01-25T06:54:36.222Z,0.43
2017-01-25T06:55:49.840Z,0.38
2017-01-25T06:57:03.765Z,0.37
2017-01-25T06:58:17.317Z,0.39
2017-01-25T06:59:30.775Z,0.41
2017-01-25T07:00:44.328Z,0.41
2017-01-25T07:01:58.355Z,0.42
2017-01-25T07:03:13.413Z,0.4
2017-01-25T07:04:26.991Z,0.36
2017-01-25T07:05:40.432Z,0.35
2017-01-25T07:06:54.028Z,0.35
2017-01-25T07:08:07.768Z,0.36
2017-01-25T07:09:21.220Z,0.42
2017-01-25T07:10:34.712Z,0.48
2017-01-25T07:11:48.642Z,0.54
2017-01-25T07:13:02.340Z,0.61
2017-01-25T07:14:16.281Z,0.65
2017-01-25T07:15:30.157Z,0.66
2017-01-25T07:16:43.780Z,0.63
2017-01-25T07:17:57.772Z,0.63
2017-01-25T07:19:11.273Z,0.62
2017-01-25T07:20:24.722Z,0.64
2017-01-25T07:21:38.575Z,0.63
2017-01-25T07:22:52.062Z,0.61
2017-01-25T07:24:05.542Z,0.59
2017-01-25T07:25:19.001Z,0.58
2017-01-25T07:26:32.467Z,0.56
2017-01-25T07:27:46.958Z,0.52
2017-01-25T07:29:00.481Z,0.52
2017-01-25T07:30:15.413Z,0.55
2017-01-25T07:31:28.973Z,0.6
2017-01-25T07:32:42.567Z,0.63
2017-01-25T07:33:56.565Z,0.67
2017-01-25T07:35:11.398Z,0.67
2017-01-25T07:36:24.836Z,0.68
2017-01-25T07:37:38.336Z,0.66
2017-01-25T07:38:51.880Z,0.65
2017-01-25T07:40:08.010Z,0.65
2017-01-25T07:41:21.586Z,0.61
2017-01-25T07:42:35.142Z,0.59
2017-01-25T07:43:48.627Z,0.6
2017-01-25T07:45:02.270Z,0.61
2017-01-25T07:46:16.129Z,0.62
2017-01-25T07:47:29.731Z,0.63
2017-01-25T07:48:43.206Z,0.63
2017-01-25T07:49:56.641Z,0.58
2017-01-25T07:51:10.147Z,0.58
2017-01-25T07:52:23.870Z,0.65
2017-01-25T07:53:37.354Z,0.67
2017-01-25T07:54:51.735Z,0.71
2017-01-25T07:56:05.214Z,0.73
2017-01-25T07:57:19.103Z,0.73
2017-01-25T07:58:32.851Z,0.69
2017-01-25T07:59:46.466Z,0.65
2017-01-25T08:00:59.882Z,0.65
2017-01-25T08:02:13.499Z,0.67
2017-01-25T08:03:26.969Z,0.73
2017-01-25T08:04:40.699Z,0.81
2017-01-25T08:05:55.107Z,0.88
2017-01-25T08:07:09.532Z,0.93
2017-01-25T08:08:23.131Z,0.93
2017-01-25T08:09:36.676Z,0.91
2017-01-25T08:10:50.781Z,0.87
2017-01-25T08:12:04.673Z,0.84
2017-01-25T08:13:18.134Z,0.84
2017-01-25T08:14:32.517Z,0.85
2017-01-25T08:15:47.215Z,0.85
2017-01-25T08:17:00.995Z,0.85
2017-01-25T08:18:14.916Z,0.84
2017-01-25T08:19:28.391Z,0.81
2017-01-25T08:20:41.891Z,0.78
2017-01-25T08:21:56.176Z,0.77
2017-01-25T08:27:40.674Z,0.86
2017-01-25T08:28:54.599Z,0.91
2017-01-25T08:30:08.130Z,0.95
2017-01-25T08:31:22.013Z,0.97
2017-01-25T08:32:36.017Z,0.98
2017-01-25T08:33:49.553Z,1.02
2017-01-25T08:35:03.353Z,1.03
2017-01-25T08:36:16.832Z,1.03
2017-01-25T08:37:30.694Z,1.01
2017-01-25T08:38:44.262Z,1.03
2017-01-25T08:39:57.845Z,1.01
2017-01-25T08:41:11.761Z,1
2017-01-25T08:42:25.419Z,0.96
2017-01-25T08:43:38.960Z,0.9
2017-01-25T08:44:52.405Z,0.86
2017-01-25T08:46:06.018Z,0.84
2017-01-25T08:47:20.339Z,0.76
2017-01-25T08:48:33.867Z,0.73
2017-01-25T08:49:47.917Z,0.68
2017-01-25T08:51:01.438Z,0.66
2017-01-25T08:52:15.361Z,0.68
2017-01-25T08:53:29.737Z,0.65
2017-01-25T08:54:43.619Z,0.61
2017-01-25T08:55:57.119Z,0.62
2017-01-25T08:57:10.598Z,0.63
2017-01-25T08:58:24.223Z,0.63
2017-01-25T08:59:41.277Z,0.63
2017-01-25T09:00:54.759Z,0.63
2017-01-25T09:02:08.346Z,0.66
2017-01-25T09:03:22.083Z,0.64
2017-01-25T09:04:35.730Z,0.65
2017-01-25T09:05:49.655Z,0.67
2017-01-25T09:07:03.388Z,0.71
2017-01-25T09:08:16.968Z,0.73
2017-01-25T09:09:31.027Z,0.74
2017-01-25T09:10:46.015Z,0.76
2017-01-25T09:11:59.787Z,0.8
2017-01-25T09:13:13.554Z,0.89
2017-01-25T09:14:27.176Z,0.92
2017-01-25T09:15:41.284Z,0.98
2017-01-25T09:16:55.112Z,1.04
2017-01-25T09:18:09.158Z,1.07
2017-01-25T09:19:22.830Z,1.1
2017-01-25T09:20:36.650Z,1.13
2017-01-25T09:21:51.128Z,1.17
2017-01-25T09:23:04.773Z,1.21
2017-01-25T09:24:19.104Z,1.24
2017-01-25T09:25:32.742Z,1.21
2017-01-25T09:26:46.449Z,1.21
2017-01-25T09:28:00.126Z,1.2
2017-01-25T09:29:13.709Z,1.2
2017-01-25T09:30:28.030Z,1.23
2017-01-25T09:31:41.704Z,1.27
2017-01-25T09:32:55.439Z,1.27
2017-01-25T09:34:09.078Z,1.24
2017-01-25T09:35:22.764Z,1.19
2017-01-25T09:40:57.294Z,1.21
2017-01-25T09:42:11.124Z,1.22
2017-01-25T09:43:24.679Z,1.24
2017-01-25T09:44:38.155Z,1.27
2017-01-25T09:45:51.691Z,1.32
2017-01-25T09:47:05.247Z,1.37
2017-01-25T09:48:19.162Z,1.46
2017-01-25T09:49:32.710Z,1.5
2017-01-25T09:50:46.274Z,1.53
2017-01-25T09:52:01.071Z,1.55
2017-01-25T09:53:14.693Z,1.56
2017-01-25T09:54:30.076Z,1.57
2017-01-25T09:55:43.804Z,1.57
2017-01-25T09:56:57.576Z,1.56
2017-01-25T09:58:12.031Z,1.53
2017-01-25T09:59:25.644Z,1.48
2017-01-25T10:00:40.102Z,1.39
2017-01-25T10:01:54.204Z,1.37
2017-01-25T10:03:08.247Z,1.41
2017-01-25T10:04:21.845Z,1.42
2017-01-25T10:05:36.381Z,1.46
2017-01-25T10:06:50.691Z,1.47
2017-01-25T10:08:04.695Z,1.48
2017-01-25T10:09:18.438Z,1.47
2017-01-25T10:10:32.544Z,1.45
2017-01-25T10:11:46.379Z,1.45
2017-01-25T10:13:00.865Z,1.45
2017-01-25T10:14:15.547Z,1.45
2017-01-25T10:15:29.508Z,1.42
2017-01-25T10:16:43.279Z,1.44
2017-01-25T10:17:57.331Z,1.46
2017-01-25T10:19:14.114Z,1.45
2017-01-25T10:20:28.855Z,1.46
2017-01-25T10:21:42.575Z,1.45
2017-01-25T10:22:58.182Z,1.44
2017-01-25T10:24:11.921Z,1.43
2017-01-25T10:25:25.973Z,1.4
2017-01-25T10:26:39.693Z,1.38
2017-01-25T10:27:53.589Z,1.37
2017-01-25T10:29:08.526Z,1.4
2017-01-25T10:39:36.603Z,1.26
2017-01-25T10:40:50.284Z,1.22
2017-01-25T10:42:03.936Z,1.25
2017-01-25T10:43:17.460Z,1.29
2017-01-25T10:45:22.332Z,1.33
2017-01-25T10:46:36.343Z,1.38
2017-01-25T10:47:49.861Z,1.42
2017-01-25T10:49:03.447Z,1.45
2017-01-25T10:50:17.213Z,1.49
2017-01-25T10:51:30.750Z,1.52
2017-01-25T10:52:44.309Z,1.51
2017-01-25T10:53:57.773Z,1.47
2017-01-25T10:55:11.295Z,1.47
2017-01-25T10:56:25.247Z,1.47
2017-01-25T10:57:38.787Z,1.48
2017-01-25T10:58:52.820Z,1.51
2017-01-25T11:00:06.415Z,1.5
2017-01-25T11:01:21.357Z,1.5
2017-01-25T11:02:35.240Z,1.52
2017-01-25T11:03:48.997Z,1.56
2017-01-25T11:05:02.435Z,1.56
2017-01-25T11:06:15.884Z,1.54
2017-01-25T11:07:29.962Z,1.54
2017-01-25T11:08:43.750Z,1.54
2017-01-25T11:09:57.327Z,1.54
2017-01-25T11:11:10.749Z,1.57
2017-01-25T11:12:24.676Z,1.57
2017-01-25T11:13:38.157Z,1.58
2017-01-25T11:14:51.947Z,1.65
2017-01-25T11:16:05.416Z,1.72
2017-01-25T11:17:18.983Z,1.76
2017-01-25T11:18:32.441Z,1.78
2017-01-25T11:19:46.267Z,1.8
2017-01-25T11:21:00.051Z,1.82
2017-01-25T11:22:13.511Z,1.85
2017-01-25T11:23:27.017Z,1.86
2017-01-25T11:24:40.462Z,1.77
2017-01-25T11:25:53.899Z,1.69
2017-01-25T11:27:07.653Z,1.62
2017-01-25T11:28:21.195Z,1.59
2017-01-25T11:29:34.603Z,1.57
2017-01-25T11:30:48.064Z,1.53
2017-01-25T11:32:01.522Z,1.5
2017-01-25T11:33:15.321Z,1.51
2017-01-25T11:34:28.749Z,1.53
2017-01-25T11:35:42.219Z,1.55
2017-01-25T11:36:55.721Z,1.56
2017-01-25T11:38:09.155Z,1.6
2017-01-25T11:39:23.000Z,1.65
2017-01-25T11:40:36.467Z,1.69
2017-01-25T11:41:50.309Z,1.72
2017-01-25T11:43:06.873Z,1.74
2017-01-25T11:44:20.371Z,1.74
2017-01-25T11:45:34.119Z,1.75
2017-01-25T11:46:47.626Z,1.76
2017-01-25T11:48:01.116Z,1.76
2017-01-25T11:49:16.047Z,1.73
2017-01-25T11:50:29.751Z,1.7
2017-01-25T11:51:44.034Z,1.64
2017-01-25T11:52:57.502Z,1.63
2017-01-25T11:54:11.106Z,1.65
2017-01-25T11:55:25.627Z,1.65
2017-01-25T11:56:39.311Z,1.68
2017-01-25T11:57:53.124Z,1.71
2017-01-25T11:59:06.578Z,1.73
2017-01-25T12:00:52.139Z,1.74
2017-01-25T12:02:05.713Z,1.75
2017-01-25T12:03:20.767Z,1.75
2017-01-25T12:04:34.299Z,1.74
2017-01-25T12:05:47.889Z,1.73
2017-01-25T12:07:01.785Z,1.73
2017-01-25T12:08:15.301Z,1.71
2017-01-25T12:09:29.065Z,1.68
2017-01-25T12:10:43.048Z,1.68
2017-01-25T12:11:56.563Z,1.67
2017-01-25T12:13:10.265Z,1.67
2017-01-25T12:14:23.788Z,1.72
2017-01-25T12:15:37.574Z,1.75
2017-01-25T12:16:51.023Z,1.8
2017-01-25T12:18:04.572Z,1.85
2017-01-25T12:19:18.200Z,1.88
2017-01-25T12:20:32.306Z,1.91
2017-01-25T12:21:46.112Z,1.94
2017-01-25T12:22:59.696Z,1.94
2017-01-25T12:24:13.214Z,1.91
2017-01-25T12:25:26.763Z,1.89
2017-01-25T12:26:40.421Z,1.86
2017-01-25T12:27:54.215Z,1.83
2017-01-25T12:29:07.859Z,1.8
2017-01-25T12:30:21.537Z,1.86
2017-01-25T12:31:35.600Z,1.93
2017-01-25T12:32:49.674Z,1.97
2017-01-25T12:34:03.570Z,1.98
2017-01-25T12:35:17.606Z,1.99
2017-01-25T12:36:31.297Z,1.97
2017-01-25T12:37:44.950Z,1.98
2017-01-25T12:38:58.519Z,1.99
2017-01-25T12:40:12.232Z,2.01
2017-01-25T12:41:25.654Z,2.03
2017-01-25T12:42:39.183Z,2.05
2017-01-25T12:43:52.650Z,2.03
2017-01-25T12:45:06.128Z,1.99
2017-01-25T12:46:19.598Z,1.98
2017-01-25T12:47:33.975Z,2.02
2017-01-25T12:48:47.421Z,2.02
2017-01-25T12:50:00.847Z,2.03
2017-01-25T12:51:14.327Z,2.05
2017-01-25T12:52:28.093Z,2.04
2017-01-25T12:53:44.969Z,2.02
2017-01-25T12:55:43.192Z,1.99
2017-01-25T12:56:56.676Z,1.99
2017-01-25T12:58:10.508Z,1.98
2017-01-25T12:59:24.432Z,1.94
2017-01-25T13:00:40.115Z,1.93
2017-01-25T13:01:53.597Z,1.98
2017-01-25T13:03:07.081Z,2.03
2017-01-25T13:04:21.257Z,2.07
2017-01-25T13:05:34.731Z,2.1
2017-01-25T13:06:48.201Z,2.14
2017-01-25T13:08:01.670Z,2.16
2017-01-25T13:09:16.398Z,2.12
2017-01-25T13:10:30.160Z,2.09
2017-01-25T13:11:43.653Z,2.04
2017-01-25T13:12:57.104Z,2.01
2017-01-25T13:14:10.596Z,2.01
2017-01-25T13:15:24.043Z,1.99
2017-01-25T13:16:37.792Z,2
2017-01-25T13:17:51.272Z,1.98
2017-01-25T13:19:04.738Z,1.95
2017-01-25T13:20:18.294Z,1.97
2017-01-25T13:21:31.780Z,1.98
2017-01-25T13:22:45.543Z,1.99
2017-01-25T13:23:59.030Z,1.97
2017-01-25T13:25:12.569Z,2
2017-01-25T13:26:26.046Z,2.02
2017-01-25T13:27:39.577Z,2.04
2017-01-25T13:28:53.326Z,2.07
2017-01-25T13:30:08.064Z,2.11
2017-01-25T13:31:21.553Z,2.1
2017-01-25T13:32:35.251Z,2.04
2017-01-25T13:33:48.794Z,1.99
2017-01-25T13:35:02.546Z,1.95
2017-01-25T13:36:17.220Z,1.89
2017-01-25T13:37:30.687Z,1.9
2017-01-25T13:38:44.253Z,1.88
2017-01-25T13:39:57.739Z,1.84
2017-01-25T13:41:11.629Z,1.82
2017-01-25T13:42:25.093Z,1.84
2017-01-25T13:43:39.195Z,1.86
2017-01-25T13:44:52.640Z,1.87
2017-01-25T13:46:12.407Z,1.89
2017-01-25T13:47:26.542Z,1.9
2017-01-25T13:48:39.966Z,1.9
2017-01-25T13:49:53.400Z,1.92
2017-01-25T13:51:06.881Z,1.91
2017-01-25T13:52:20.437Z,1.93
2017-01-25T13:53:34.175Z,1.91
2017-01-25T13:54:47.641Z,1.9
2017-01-25T13:56:01.120Z,1.91
2017-01-25T13:57:16.290Z,1.94
2017-01-25T13:58:29.741Z,1.95
2017-01-25T13:59:44.159Z,1.96
2017-01-25T14:00:57.650Z,1.96
2017-01-25T14:02:11.306Z,1.93
2017-01-25T14:03:24.780Z,1.88
2017-01-25T14:04:38.244Z,1.82
2017-01-25T14:05:52.424Z,1.81
2017-01-25T14:07:06.364Z,1.82
2017-01-25T14:08:19.880Z,1.84
2017-01-25T14:09:33.364Z,1.83
2017-01-25T14:10:46.761Z,1.76
2017-01-25T14:12:00.485Z,1.72
2017-01-25T14:13:14.052Z,1.66
2017-01-25T14:14:27.499Z,1.67
2017-01-25T14:15:40.988Z,1.66
2017-01-25T14:16:56.660Z,1.68
2017-01-25T14:18:10.669Z,1.7
2017-01-25T14:19:24.153Z,1.73
2017-01-25T14:20:37.649Z,1.76
2017-01-25T14:21:51.326Z,1.8
2017-01-25T14:23:04.850Z,1.83
2017-01-25T14:24:22.068Z,1.87
2017-01-25T14:25:48.264Z,1.89
2017-01-25T14:27:01.717Z,1.91
2017-01-25T14:28:15.215Z,1.93
2017-01-25T14:29:28.927Z,1.91
2017-01-25T14:30:42.431Z,1.94
2017-01-25T14:31:55.904Z,1.92
2017-01-25T14:33:09.392Z,1.91
2017-01-25T14:34:22.922Z,1.91
2017-01-25T14:35:36.652Z,1.9
2017-01-25T14:36:50.325Z,1.88
2017-01-25T14:38:04.192Z,1.86
2017-01-25T14:39:17.805Z,1.86
2017-01-25T14:40:31.647Z,1.86
2017-01-25T14:41:45.376Z,1.85
2017-01-25T14:42:58.847Z,1.84
2017-01-25T14:44:12.802Z,1.85
2017-01-25T14:45:26.282Z,1.88
2017-01-25T14:46:39.761Z,1.93
2017-01-25T14:47:53.541Z,1.92
2017-01-25T14:49:07.025Z,1.91
2017-01-25T14:50:20.530Z,1.9
2017-01-25T14:51:34.008Z,1.88
2017-01-25T14:52:47.548Z,1.89
2017-01-25T14:54:01.346Z,1.88
2017-01-25T14:55:14.877Z,1.87
2017-01-25T14:56:28.418Z,1.86
2017-01-25T14:57:41.949Z,1.84
2017-01-25T14:58:55.702Z,1.79
2017-01-25T15:00:10.741Z,1.76
2017-01-25T15:01:24.223Z,1.76
2017-01-25T15:02:38.601Z,1.79
2017-01-25T15:03:52.131Z,1.79
2017-01-25T15:05:05.599Z,1.81
2017-01-25T15:06:19.438Z,1.82
2017-01-25T15:07:32.902Z,1.84
2017-01-25T15:08:46.880Z,1.84
2017-01-25T15:10:00.385Z,1.86
2017-01-25T15:11:13.906Z,1.87
2017-01-25T15:12:27.659Z,1.89
2017-01-25T15:13:41.146Z,1.88
2017-01-25T15:14:54.601Z,1.85
2017-01-25T15:16:08.211Z,1.82
2017-01-25T15:17:21.677Z,1.77
2017-01-25T15:18:35.493Z,1.74
2017-01-25T15:19:48.964Z,1.7
2017-01-25T15:21:02.521Z,1.66
2017-01-25T15:22:16.142Z,1.64
2017-01-25T15:23:29.659Z,1.63
2017-01-25T15:24:43.489Z,1.64
2017-01-25T15:25:56.985Z,1.65
2017-01-25T15:27:11.696Z,1.64
2017-01-25T15:28:25.347Z,1.59
2017-01-25T15:29:38.857Z,1.57
2017-01-25T15:30:53.119Z,1.58
2017-01-25T15:32:06.633Z,1.63
2017-01-25T15:33:22.311Z,1.67
2017-01-25T15:34:35.820Z,1.67
2017-01-25T15:35:49.287Z,1.68
2017-01-25T15:37:02.783Z,1.65
2017-01-25T15:38:16.302Z,1.65
2017-01-25T15:39:29.761Z,1.64
2017-01-25T15:40:43.202Z,1.63
2017-01-25T15:41:56.917Z,1.63
2017-01-25T15:43:11.215Z,1.64
2017-01-25T15:44:25.115Z,1.62
2017-01-25T15:45:39.127Z,1.61
2017-01-25T15:46:52.986Z,1.61
2017-01-25T15:48:06.479Z,1.62
2017-01-25T15:49:20.232Z,1.64
2017-01-25T15:50:33.750Z,1.66
2017-01-25T15:51:47.794Z,1.7
2017-01-25T15:53:01.408Z,1.72
2017-01-25T15:54:14.962Z,1.75
2017-01-25T15:55:29.349Z,1.74
2017-01-25T15:56:43.862Z,1.73
2017-01-25T15:57:58.034Z,1.75
2017-01-25T15:59:11.694Z,1.73
2017-01-25T16:00:25.827Z,1.67
2017-01-25T16:01:40.106Z,1.62
2017-01-25T16:02:53.626Z,1.59
2017-01-25T16:04:07.258Z,1.57
2017-01-25T16:05:20.805Z,1.59
2017-01-25T16:06:34.352Z,1.64
2017-01-25T16:07:48.329Z,1.66
2017-01-25T16:09:02.260Z,1.7
2017-01-25T16:10:16.336Z,1.71
2017-01-25T16:11:29.964Z,1.74
2017-01-25T16:12:43.475Z,1.8
2017-01-25T16:13:57.713Z,1.8
2017-01-25T16:15:12.738Z,1.8
2017-01-25T16:16:26.419Z,1.8
2017-01-25T16:17:40.202Z,1.8
2017-01-25T16:18:54.988Z,1.78
2017-01-25T16:20:10.612Z,1.79
2017-01-25T16:21:24.612Z,1.78
2017-01-25T16:22:38.628Z,1.77
2017-01-25T16:23:52.254Z,1.75
2017-01-25T16:25:05.804Z,1.77
2017-01-25T16:26:19.619Z,1.79
2017-01-25T16:27:33.349Z,1.8
2017-01-25T16:28:47.039Z,1.8
2017-01-25T16:30:00.949Z,1.8
2017-01-25T16:31:15.807Z,1.8
2017-01-25T16:32:30.155Z,1.8
2017-01-25T16:33:43.669Z,1.81
2017-01-25T16:34:57.413Z,1.81
2017-01-25T16:36:11.026Z,1.8
2017-01-25T16:37:24.662Z,1.81
2017-01-25T16:38:38.975Z,1.8
2017-01-25T16:39:52.447Z,1.83
2017-01-25T16:41:06.210Z,1.8
2017-01-25T16:42:20.142Z,1.81
2017-01-25T16:43:33.608Z,1.8
2017-01-25T16:44:47.680Z,1.8
2017-01-25T16:46:01.810Z,1.77
2017-01-25T16:47:15.907Z,1.74
2017-01-25T16:48:29.821Z,1.74